Time;durP1;ratioP1;P1;durP2;ratioP2;P2;SDS_P1;SDS_P2;PMS_P1;PMS_P2;Temp;Humidity;BMP_temperature;BMP_pressure;BME280_temperature;BME280_humidity;BME280_pressure;Samples;Min_cycle;Max_cycle;Signal;HPM_P1;HPM_P2
2023/06/11 00:01:19;;;;;;;13.85;5.07;;;18.60;99.90;;;;;;5072682;28;20048;-73
2023/06/11 00:03:52;;;;;;;12.90;5.18;;;18.60;99.90;;;;;;5072952;28;20167;-74
2023/06/11 00:06:22;;;;;;;12.48;5.47;;;18.60;99.90;;;;;;5071382;28;20049;-73
2023/06/11 00:08:48;;;;;;;15.18;5.20;;;18.60;99.90;;;;;;5071411;28;20048;-73
2023/06/11 00:11:14;;;;;;;12.20;6.00;;;18.60;99.90;;;;;;5055206;28;20471;-74
2023/06/11 00:13:40;;;;;;;18.38;5.80;;;18.60;99.90;;;;;;5071350;28;20047;-74
2023/06/11 00:16:06;;;;;;;12.85;5.40;;;18.60;99.90;;;;;;5054919;28;20147;-73
2023/06/11 00:18:32;;;;;;;12.38;5.57;;;18.50;99.90;;;;;;5071467;28;20418;-74
2023/06/11 00:20:58;;;;;;;13.25;6.00;;;18.60;99.90;;;;;;5072761;28;20036;-75
2023/06/11 00:23:24;;;;;;;14.30;5.70;;;18.60;99.90;;;;;;5072517;28;20090;-74
2023/06/11 00:25:52;;;;;;;17.08;5.82;;;18.60;99.90;;;;;;5072490;28;20032;-74
2023/06/11 00:28:18;;;;;;;11.13;5.57;;;18.60;99.90;;;;;;5054260;28;20071;-73
2023/06/11 00:30:44;;;;;;;11.98;5.60;;;18.60;99.90;;;;;;5070738;28;20127;-74
2023/06/11 00:33:10;;;;;;;8.82;5.40;;;18.60;99.90;;;;;;5070870;28;20127;-73
2023/06/11 00:35:37;;;;;;;17.88;6.15;;;18.60;99.90;;;;;;5072225;28;20512;-73
2023/06/11 00:38:02;;;;;;;10.85;5.80;;;18.60;99.90;;;;;;5072172;28;20079;-73
2023/06/11 00:40:28;;;;;;;9.65;5.07;;;18.60;99.90;;;;;;5071858;28;20084;-73
2023/06/11 00:42:54;;;;;;;13.23;5.85;;;18.60;99.90;;;;;;5070770;28;20154;-73
2023/06/11 00:45:22;;;;;;;12.73;5.70;;;18.60;99.90;;;;;;5071981;28;20048;-73
2023/06/11 00:47:48;;;;;;;14.25;5.55;;;18.60;99.90;;;;;;5071774;28;20526;-73
2023/06/11 00:50:15;;;;;;;11.10;5.95;;;18.50;99.90;;;;;;5070341;28;20044;-73
2023/06/11 00:52:41;;;;;;;12.07;5.70;;;18.60;99.90;;;;;;5070854;28;20531;-73
2023/06/11 00:55:08;;;;;;;10.25;5.88;;;18.50;99.90;;;;;;5071956;28;20479;-73
2023/06/11 00:57:35;;;;;;;14.13;6.07;;;18.50;99.90;;;;;;5070606;28;20056;-73
2023/06/11 01:00:03;;;;;;;10.90;5.93;;;18.50;99.90;;;;;;5071782;28;20084;-73
2023/06/11 01:02:36;;;;;;;10.55;5.88;;;18.50;99.90;;;;;;5071415;28;20048;-74
2023/06/11 01:05:04;;;;;;;10.27;6.10;;;18.50;99.90;;;;;;5070175;28;20059;-72
2023/06/11 01:07:38;;;;;;;9.85;5.35;;;18.50;99.90;;;;;;5070220;28;20045;-73
2023/06/11 01:10:04;;;;;;;16.38;6.10;;;18.50;99.90;;;;;;5071554;28;20116;-73
2023/06/11 01:12:30;;;;;;;10.23;5.65;;;18.40;99.90;;;;;;5070150;28;20050;-73
2023/06/11 01:14:56;;;;;;;13.05;6.53;;;18.40;99.90;;;;;;5071564;28;20052;-72
2023/06/11 01:17:35;;;;;;;12.95;5.68;;;18.40;99.90;;;;;;5071205;28;20046;-73
2023/06/11 01:20:35;;;;;;;13.88;5.75;;;18.40;99.90;;;;;;5054730;28;20067;-74
2023/06/11 01:23:20;;;;;;;11.68;6.40;;;18.40;99.90;;;;;;5031899;28;20140;-73
2023/06/11 01:26:01;;;;;;;8.43;5.78;;;18.40;99.90;;;;;;5015765;28;20073;-73
2023/06/11 01:28:31;;;;;;;9.27;5.68;;;18.40;99.90;;;;;;5032063;28;20094;-73
2023/06/11 01:31:03;;;;;;;9.48;5.57;;;18.30;99.90;;;;;;5031982;28;20111;-73
2023/06/11 01:33:34;;;;;;;14.35;5.63;;;18.30;99.90;;;;;;5048381;28;20157;-73
2023/06/11 01:36:00;;;;;;;15.65;7.10;;;18.30;99.90;;;;;;5032093;28;20068;-73
2023/06/11 01:38:34;;;;;;;8.63;5.65;;;18.20;99.90;;;;;;5031687;28;20053;-73
2023/06/11 01:41:01;;;;;;;8.25;5.97;;;18.20;99.90;;;;;;5031866;28;20500;-73
2023/06/11 01:43:28;;;;;;;9.80;5.72;;;18.20;99.90;;;;;;5048584;28;20071;-74
2023/06/11 01:45:55;;;;;;;12.63;6.40;;;18.10;99.90;;;;;;5048476;28;20478;-74
2023/06/11 01:48:21;;;;;;;12.10;6.30;;;18.10;99.90;;;;;;5031361;28;20389;-74
2023/06/11 01:50:47;;;;;;;9.20;6.10;;;18.10;99.90;;;;;;5048143;28;20056;-73
2023/06/11 01:53:13;;;;;;;11.57;5.78;;;18.00;99.90;;;;;;5048256;28;20056;-73
2023/06/11 01:55:39;;;;;;;12.15;6.20;;;18.00;99.90;;;;;;5048488;28;20037;-73
2023/06/11 01:58:05;;;;;;;8.32;5.50;;;18.00;99.90;;;;;;5048400;28;20049;-73
2023/06/11 02:00:31;;;;;;;9.00;6.63;;;18.00;99.90;;;;;;5070417;28;20078;-73
2023/06/11 02:02:56;;;;;;;14.10;5.30;;;17.90;99.90;;;;;;5052866;28;20523;-74
2023/06/11 02:05:22;;;;;;;12.20;6.32;;;17.90;99.90;;;;;;5069675;28;20484;-73
2023/06/11 02:07:48;;;;;;;9.88;6.20;;;17.90;99.90;;;;;;5070666;28;20048;-73
2023/06/11 02:10:13;;;;;;;11.50;6.30;;;17.90;99.90;;;;;;5069015;28;20115;-73
2023/06/11 02:12:39;;;;;;;8.30;6.07;;;17.90;99.90;;;;;;5069289;28;20048;-74
2023/06/11 02:15:06;;;;;;;8.85;5.93;;;17.80;99.90;;;;;;5069145;28;20036;-73
2023/06/11 02:17:31;;;;;;;14.43;6.57;;;17.80;99.90;;;;;;5069212;28;20143;-73
2023/06/11 02:19:57;;;;;;;8.40;6.30;;;17.80;99.90;;;;;;5068738;28;20127;-73
2023/06/11 02:22:23;;;;;;;15.27;6.97;;;17.80;99.90;;;;;;5070718;28;20040;-73
2023/06/11 02:24:49;;;;;;;12.32;6.93;;;17.70;99.90;;;;;;5070164;28;20469;-73
2023/06/11 02:27:14;;;;;;;8.77;6.40;;;17.70;99.90;;;;;;5069237;28;20041;-73
2023/06/11 02:29:40;;;;;;;9.80;6.55;;;17.70;99.90;;;;;;5068983;28;20772;-73
2023/06/11 02:32:07;;;;;;;10.50;7.15;;;17.70;99.90;;;;;;5052353;28;20095;-73
2023/06/11 02:34:32;;;;;;;8.75;6.72;;;17.70;99.90;;;;;;5068628;28;20063;-73
2023/06/11 02:36:58;;;;;;;10.35;7.32;;;17.70;99.90;;;;;;5069169;28;20040;-73
2023/06/11 02:39:24;;;;;;;10.10;7.28;;;17.70;99.90;;;;;;5068670;28;20491;-74
2023/06/11 02:41:50;;;;;;;11.70;7.50;;;17.70;99.90;;;;;;5052025;28;20049;-74
2023/06/11 02:44:15;;;;;;;11.55;7.30;;;17.70;99.90;;;;;;5052277;28;20186;-73
2023/06/11 02:46:41;;;;;;;13.93;7.22;;;17.70;99.90;;;;;;5070053;28;20040;-73
2023/06/11 02:49:07;;;;;;;12.63;6.72;;;17.70;99.90;;;;;;5069890;28;20509;-74
2023/06/11 02:51:32;;;;;;;8.90;7.18;;;17.70;99.90;;;;;;5061750;28;20045;-73
2023/06/11 02:53:58;;;;;;;17.70;6.85;;;17.70;99.90;;;;;;5070162;28;20396;-72
2023/06/11 02:56:23;;;;;;;12.93;6.93;;;17.70;99.90;;;;;;5069736;28;20039;-74
2023/06/11 02:58:49;;;;;;;11.88;7.07;;;17.60;99.90;;;;;;5070109;28;20028;-73
2023/06/11 03:01:15;;;;;;;11.80;7.78;;;17.60;99.90;;;;;;5069936;28;20048;-72
2023/06/11 03:03:41;;;;;;;16.10;7.88;;;17.60;99.90;;;;;;5069896;28;20127;-73
2023/06/11 03:06:06;;;;;;;11.55;6.78;;;17.60;99.90;;;;;;5069595;28;20048;-72
2023/06/11 03:08:32;;;;;;;11.93;7.03;;;17.60;99.90;;;;;;5068621;28;20071;-72
2023/06/11 03:10:57;;;;;;;8.93;7.18;;;17.60;99.90;;;;;;5068718;28;20071;-73
2023/06/11 03:13:23;;;;;;;12.02;7.07;;;17.50;99.90;;;;;;5069882;28;20048;-73
2023/06/11 03:15:49;;;;;;;10.43;7.15;;;17.50;99.90;;;;;;5068256;28;20072;-72
2023/06/11 03:18:15;;;;;;;9.68;6.82;;;17.50;99.90;;;;;;5068404;28;20234;-73
2023/06/11 03:20:41;;;;;;;10.95;7.43;;;17.50;99.90;;;;;;5070145;28;20060;-73
2023/06/11 03:23:07;;;;;;;15.63;7.50;;;17.50;99.90;;;;;;5073649;28;20133;-73
2023/06/11 03:25:32;;;;;;;12.20;8.10;;;17.50;99.90;;;;;;5072601;28;20047;-73
2023/06/11 03:27:58;;;;;;;8.57;7.15;;;17.50;99.90;;;;;;5072117;28;20506;-72
2023/06/11 03:30:24;;;;;;;13.63;8.00;;;17.50;99.90;;;;;;5072051;28;20037;-73
2023/06/11 03:32:49;;;;;;;11.02;7.72;;;17.40;99.90;;;;;;5073577;28;20045;-73
2023/06/11 03:35:16;;;;;;;11.85;7.22;;;17.50;99.90;;;;;;5073188;28;20052;-73
2023/06/11 03:37:42;;;;;;;10.60;7.43;;;17.40;99.90;;;;;;5073274;28;20492;-73
2023/06/11 03:40:08;;;;;;;13.50;7.82;;;17.40;99.90;;;;;;5071721;28;20067;-74
2023/06/11 03:42:34;;;;;;;9.43;7.65;;;17.40;99.90;;;;;;5072007;28;20089;-74
2023/06/11 03:45:00;;;;;;;8.50;7.47;;;17.40;99.90;;;;;;5071870;28;20087;-74
2023/06/11 03:47:25;;;;;;;11.68;7.63;;;17.40;99.90;;;;;;5073293;28;20055;-73
2023/06/11 03:49:51;;;;;;;12.13;7.47;;;17.40;99.90;;;;;;5073240;28;20041;-73
2023/06/11 03:52:17;;;;;;;8.52;7.05;;;17.40;99.90;;;;;;5072858;28;20044;-73
2023/06/11 03:54:43;;;;;;;11.23;7.18;;;17.40;99.90;;;;;;5072970;28;20488;-73
2023/06/11 03:57:08;;;;;;;13.52;7.90;;;17.40;99.90;;;;;;5071687;28;20041;-73
2023/06/11 03:59:34;;;;;;;13.25;7.85;;;17.40;99.90;;;;;;5072651;28;20331;-72
2023/06/11 04:02:00;;;;;;;10.90;8.07;;;17.40;99.90;;;;;;5071872;28;20412;-73
2023/06/11 04:04:26;;;;;;;11.65;8.38;;;17.40;99.90;;;;;;5071474;28;20059;-73
2023/06/11 04:06:51;;;;;;;13.10;7.90;;;17.40;99.90;;;;;;5072635;28;20033;-72
2023/06/11 04:09:17;;;;;;;9.70;7.63;;;17.40;99.90;;;;;;5072849;28;20072;-74
2023/06/11 04:11:43;;;;;;;10.88;7.82;;;17.40;99.90;;;;;;5072576;28;20052;-73
2023/06/11 04:14:08;;;;;;;11.38;7.63;;;17.50;99.90;;;;;;5071532;28;20044;-73
2023/06/11 04:16:34;;;;;;;9.68;7.95;;;17.50;99.90;;;;;;5071477;28;20055;-73
2023/06/11 04:19:00;;;;;;;9.35;7.82;;;17.50;99.90;;;;;;5072657;28;20050;-73
2023/06/11 04:21:25;;;;;;;9.80;7.75;;;17.50;99.90;;;;;;5071402;28;20607;-73
2023/06/11 04:23:51;;;;;;;9.90;7.70;;;17.50;99.90;;;;;;5071045;28;20080;-73
2023/06/11 04:26:19;;;;;;;12.02;8.18;;;17.60;99.90;;;;;;5054592;28;20059;-73
2023/06/11 04:28:45;;;;;;;10.50;8.00;;;17.60;99.90;;;;;;5071388;28;20055;-73
2023/06/11 04:31:14;;;;;;;8.93;7.93;;;17.60;99.90;;;;;;5071063;28;20210;-74
2023/06/11 04:33:40;;;;;;;13.30;9.00;;;17.70;99.90;;;;;;5071236;28;20733;-74
2023/06/11 04:36:08;;;;;;;11.88;8.43;;;17.70;99.90;;;;;;5071484;28;20426;-73
2023/06/11 04:38:37;;;;;;;11.45;8.25;;;17.70;99.90;;;;;;5071065;28;20137;-73
2023/06/11 04:41:05;;;;;;;13.40;7.80;;;17.80;99.90;;;;;;5071029;28;20167;-73
2023/06/11 04:43:33;;;;;;;12.07;8.25;;;17.80;99.90;;;;;;5070873;28;20782;-73
2023/06/11 04:45:59;;;;;;;13.00;8.43;;;17.90;99.90;;;;;;5072399;28;20048;-74
2023/06/11 04:48:27;;;;;;;10.07;7.70;;;17.90;99.90;;;;;;5071927;28;20040;-73
2023/06/11 04:50:54;;;;;;;12.27;8.48;;;18.00;99.90;;;;;;5072158;28;20048;-73
2023/06/11 04:53:24;;;;;;;8.60;7.70;;;18.00;99.90;;;;;;5070406;28;20499;-73
2023/06/11 04:55:51;;;;;;;14.23;8.70;;;18.00;99.90;;;;;;5071907;28;20044;-74
2023/06/11 04:58:21;;;;;;;12.98;8.23;;;18.20;99.90;;;;;;5070529;28;20048;-74
2023/06/11 05:00:48;;;;;;;9.80;8.13;;;18.20;99.90;;;;;;5072140;28;20070;-73
2023/06/11 05:03:17;;;;;;;10.02;8.00;;;18.20;99.90;;;;;;5071956;28;20068;-73
2023/06/11 05:05:51;;;;;;;11.93;9.00;;;18.30;99.90;;;;;;5071736;28;20040;-73
2023/06/11 05:08:28;;;;;;;10.70;8.40;;;18.40;99.90;;;;;;5071732;28;20050;-73
2023/06/11 05:10:57;;;;;;;9.00;7.97;;;18.50;99.90;;;;;;5062619;28;20553;-73
2023/06/11 05:13:26;;;;;;;10.98;8.07;;;18.50;99.90;;;;;;5053839;28;20464;-73
2023/06/11 05:15:56;;;;;;;11.68;8.45;;;18.60;99.90;;;;;;5070229;28;20492;-73
2023/06/11 05:18:23;;;;;;;14.05;8.75;;;18.70;99.90;;;;;;5071641;28;20319;-73
2023/06/11 05:20:49;;;;;;;10.73;7.97;;;18.80;99.90;;;;;;5070309;28;20052;-73
2023/06/11 05:23:18;;;;;;;9.38;8.27;;;18.80;99.90;;;;;;5069868;28;20036;-74
2023/06/11 05:25:47;;;;;;;11.57;8.35;;;18.90;99.90;;;;;;5069975;28;20107;-73
2023/06/11 05:28:14;;;;;;;11.82;7.85;;;19.00;99.90;;;;;;5071684;28;20040;-73
2023/06/11 05:30:43;;;;;;;15.68;8.70;;;19.10;99.90;;;;;;5071440;28;20084;-73
2023/06/11 05:33:10;;;;;;;11.68;8.35;;;19.10;99.90;;;;;;5071191;28;20044;-73
2023/06/11 05:35:37;;;;;;;10.88;8.15;;;19.20;99.90;;;;;;5053335;28;20052;-74
2023/06/11 05:38:06;;;;;;;11.43;7.68;;;19.40;99.90;;;;;;5071031;28;20087;-75
2023/06/11 05:40:33;;;;;;;11.23;8.27;;;19.40;99.90;;;;;;5071319;28;20063;-73
2023/06/11 05:42:59;;;;;;;12.18;8.27;;;19.50;99.90;;;;;;5069395;28;20123;-73
2023/06/11 05:45:25;;;;;;;10.85;8.25;;;19.50;99.90;;;;;;5061309;28;20080;-75
2023/06/11 05:47:51;;;;;;;13.48;8.95;;;19.60;99.90;;;;;;5071369;28;20141;-73
2023/06/11 05:50:17;;;;;;;12.57;8.55;;;19.70;99.90;;;;;;5070882;28;20049;-73
2023/06/11 05:52:44;;;;;;;10.98;8.35;;;19.80;99.90;;;;;;5070994;28;20102;-73
2023/06/11 05:55:10;;;;;;;11.10;8.65;;;19.90;99.90;;;;;;5069811;28;20087;-73
2023/06/11 05:57:36;;;;;;;12.65;7.85;;;20.00;99.90;;;;;;5069547;28;20603;-73
2023/06/11 06:00:02;;;;;;;13.90;8.18;;;20.00;99.90;;;;;;5069699;28;20044;-73
2023/06/11 06:02:27;;;;;;;11.30;8.27;;;20.10;99.90;;;;;;5069389;28;20064;-73
2023/06/11 06:04:54;;;;;;;9.93;7.82;;;20.20;99.90;;;;;;5069172;28;20048;-74
2023/06/11 06:07:20;;;;;;;14.57;7.97;;;20.30;99.90;;;;;;5052744;28;20048;-73
2023/06/11 06:09:45;;;;;;;9.45;7.18;;;20.40;99.90;;;;;;5068822;28;20052;-74
2023/06/11 06:12:11;;;;;;;12.07;8.82;;;20.50;99.90;;;;;;5052784;28;20052;-73
2023/06/11 06:14:37;;;;;;;14.43;8.00;;;20.50;99.90;;;;;;5070310;28;20040;-73
2023/06/11 06:17:03;;;;;;;11.48;8.50;;;20.70;99.90;;;;;;5069226;28;20044;-75
2023/06/11 06:19:28;;;;;;;10.27;8.02;;;20.70;99.90;;;;;;5068834;28;20059;-74
2023/06/11 06:21:54;;;;;;;11.27;7.82;;;20.90;99.90;;;;;;5068904;28;20048;-74
2023/06/11 06:24:19;;;;;;;10.82;7.65;;;20.90;99.90;;;;;;5070280;28;20032;-74
2023/06/11 06:26:45;;;;;;;14.65;8.05;;;21.10;99.90;;;;;;5070250;28;20441;-74
2023/06/11 06:29:14;;;;;;;12.25;8.70;;;21.20;99.90;;;;;;5070313;28;20037;-74
2023/06/11 06:31:43;;;;;;;10.98;7.68;;;21.40;99.90;;;;;;5069128;28;20493;-74
2023/06/11 06:34:09;;;;;;;11.75;8.20;;;21.50;99.90;;;;;;5070170;28;20044;-75
2023/06/11 06:36:38;;;;;;;9.40;7.90;;;21.60;99.90;;;;;;5070407;28;20040;-74
2023/06/11 06:39:04;;;;;;;12.38;7.95;;;21.90;99.90;;;;;;5068678;28;20434;-74
2023/06/11 06:41:30;;;;;;;8.68;7.45;;;22.00;99.90;;;;;;5052482;28;20052;-74
2023/06/11 06:43:56;;;;;;;12.00;8.15;;;22.20;99.90;;;;;;5069122;28;20538;-74
2023/06/11 06:46:21;;;;;;;12.23;8.10;;;22.50;99.90;;;;;;5068853;28;20443;-74
2023/06/11 06:48:47;;;;;;;9.32;7.13;;;22.70;99.90;;;;;;5069073;28;20040;-73
2023/06/11 06:51:13;;;;;;;13.68;7.88;;;22.90;99.90;;;;;;5069091;28;20051;-74
2023/06/11 06:53:39;;;;;;;15.45;7.65;;;23.10;99.90;;;;;;5070404;28;20536;-73
2023/06/11 06:56:05;;;;;;;11.27;7.43;;;23.30;99.90;;;;;;5073623;28;20041;-74
2023/06/11 06:58:34;;;;;;;12.75;6.85;;;23.60;99.90;;;;;;5074009;28;20044;-73
2023/06/11 07:01:00;;;;;;;12.02;6.15;;;23.80;99.90;;;;;;5072956;28;20048;-74
2023/06/11 07:03:25;;;;;;;10.65;6.80;;;24.10;99.90;;;;;;5074156;28;20498;-74
2023/06/11 07:05:51;;;;;;;9.68;6.90;;;24.40;99.90;;;;;;5074394;28;20037;-74
2023/06/11 07:08:18;;;;;;;12.05;6.40;;;24.50;99.90;;;;;;5072795;28;20044;-74
2023/06/11 07:10:53;;;;;;;11.50;7.43;;;24.60;99.90;;;;;;5074061;28;20032;-74
2023/06/11 07:13:20;;;;;;;13.07;7.00;;;24.80;99.90;;;;;;5072638;28;20124;-74
2023/06/11 07:15:45;;;;;;;10.05;7.03;;;25.00;99.90;;;;;;5073696;28;20037;-76
2023/06/11 07:18:11;;;;;;;11.25;6.80;;;25.20;99.90;;;;;;5073863;28;20809;-73
2023/06/11 07:20:37;;;;;;;10.05;6.78;;;25.40;99.90;;;;;;5073694;28;20431;-73
2023/06/11 07:23:03;;;;;;;11.25;6.95;;;25.50;99.90;;;;;;5073681;28;20099;-75
2023/06/11 07:25:28;;;;;;;8.20;5.93;;;25.60;99.90;;;;;;5072343;28;20040;-72
2023/06/11 07:27:55;;;;;;;8.15;6.28;;;25.70;99.90;;;;;;5071761;28;20044;-74
2023/06/11 07:30:20;;;;;;;9.18;6.78;;;26.00;99.90;;;;;;5073605;28;20055;-74
2023/06/11 07:32:46;;;;;;;11.23;7.00;;;26.20;99.90;;;;;;5073450;28;20044;-75
2023/06/11 07:35:12;;;;;;;11.07;6.60;;;26.40;99.90;;;;;;5071950;28;20052;-74
2023/06/11 07:37:38;;;;;;;11.93;6.40;;;26.60;99.90;;;;;;5072176;28;20109;-74
2023/06/11 07:40:05;;;;;;;10.32;6.53;;;26.90;99.90;;;;;;5073126;28;20102;-73
2023/06/11 07:42:31;;;;;;;8.75;6.60;;;27.00;99.90;;;;;;5071509;28;20492;-74
2023/06/11 07:44:56;;;;;;;9.00;6.38;;;27.10;99.90;;;;;;5071954;28;20178;-75
2023/06/11 07:47:22;;;;;;;12.70;6.50;;;27.10;99.90;;;;;;5072085;28;20688;-74
2023/06/11 07:49:48;;;;;;;14.75;6.65;;;27.20;99.90;;;;;;5073297;28;20518;-74
2023/06/11 07:52:13;;;;;;;10.32;6.78;;;27.30;99.90;;;;;;5071917;28;20869;-74
2023/06/11 07:54:39;;;;;;;10.50;6.43;;;27.40;99.90;;;;;;5071964;28;20545;-75
2023/06/11 07:57:06;;;;;;;11.40;6.57;;;27.50;99.90;;;;;;5072980;28;20464;-74
2023/06/11 07:59:32;;;;;;;10.00;6.00;;;27.80;99.90;;;;;;5072719;28;20060;-74
2023/06/11 08:01:57;;;;;;;8.20;5.93;;;27.80;99.20;;;;;;5071637;28;20040;-76
2023/06/11 08:04:24;;;;;;;8.60;6.18;;;27.80;99.60;;;;;;5071716;28;20041;-74
2023/06/11 08:06:50;;;;;;;9.65;6.72;;;27.90;99.30;;;;;;5054672;28;20071;-75
2023/06/11 08:09:16;;;;;;;13.23;6.63;;;27.80;98.70;;;;;;5071638;28;20086;-74
2023/06/11 08:11:42;;;;;;;10.55;6.35;;;27.90;98.70;;;;;;5071202;28;20496;-75
2023/06/11 08:14:08;;;;;;;11.63;6.35;;;27.70;99.00;;;;;;5072814;28;20036;-74
2023/06/11 08:16:34;;;;;;;10.18;6.32;;;27.80;98.80;;;;;;5072799;28;20048;-75
2023/06/11 08:18:59;;;;;;;12.57;6.20;;;27.80;98.80;;;;;;5071227;28;20402;-73
2023/06/11 08:21:25;;;;;;;11.88;6.40;;;27.80;98.50;;;;;;5072796;28;20036;-74
2023/06/11 08:23:51;;;;;;;8.50;6.38;;;28.00;98.60;;;;;;5072161;28;20475;-74
2023/06/11 08:26:17;;;;;;;8.68;6.25;;;28.20;98.30;;;;;;5071187;28;20045;-75
2023/06/11 08:28:43;;;;;;;8.68;6.03;;;28.10;98.00;;;;;;5070914;28;20044;-74
2023/06/11 08:31:10;;;;;;;7.03;5.85;;;28.30;98.00;;;;;;5072415;28;20055;-75
2023/06/11 08:33:36;;;;;;;13.38;6.07;;;28.40;98.30;;;;;;5071055;28;20055;-74
2023/06/11 08:36:03;;;;;;;10.40;5.82;;;28.40;98.10;;;;;;5071114;28;20040;-75
2023/06/11 08:38:29;;;;;;;10.60;6.13;;;28.40;97.90;;;;;;5071842;28;20059;-73
2023/06/11 08:40:55;;;;;;;10.68;5.97;;;28.60;97.90;;;;;;5070876;28;20067;-75
2023/06/11 08:43:21;;;;;;;10.02;6.40;;;28.70;97.90;;;;;;5072095;28;20037;-74
2023/06/11 08:45:48;;;;;;;6.80;5.85;;;28.90;97.70;;;;;;5072209;28;20056;-74
2023/06/11 08:48:18;;;;;;;7.35;5.53;;;29.00;97.40;;;;;;5072127;28;20040;-75
2023/06/11 08:50:46;;;;;;;9.70;6.03;;;29.00;97.50;;;;;;5071002;28;20052;-74
2023/06/11 08:53:12;;;;;;;8.88;6.20;;;28.90;97.20;;;;;;5070769;28;20051;-75
2023/06/11 08:55:38;;;;;;;8.38;5.63;;;29.00;97.30;;;;;;5070994;28;20067;-75
2023/06/11 08:58:05;;;;;;;7.63;6.00;;;29.20;96.60;;;;;;5070831;28;20468;-74
2023/06/11 09:00:30;;;;;;;6.75;5.40;;;29.20;97.00;;;;;;5070084;28;20044;-73
2023/06/11 09:02:56;;;;;;;9.23;5.93;;;29.10;96.90;;;;;;5071996;28;20053;-74
2023/06/11 09:05:22;;;;;;;9.43;5.45;;;29.20;96.60;;;;;;5071618;28;20040;-74
2023/06/11 09:07:52;;;;;;;6.22;5.05;;;29.20;96.30;;;;;;5071810;28;20036;-75
2023/06/11 09:10:19;;;;;;;8.43;5.45;;;29.20;96.20;;;;;;5070296;28;20090;-75
2023/06/11 09:12:45;;;;;;;7.88;5.35;;;29.40;96.70;;;;;;5071795;28;20458;-75
2023/06/11 09:15:12;;;;;;;9.25;5.32;;;29.70;96.50;;;;;;5070328;28;20130;-75
2023/06/11 09:17:43;;;;;;;10.52;5.68;;;29.80;96.30;;;;;;5069921;28;20480;-75
2023/06/11 09:20:10;;;;;;;8.70;5.88;;;29.90;95.60;;;;;;5069641;28;20055;-75
2023/06/11 09:22:37;;;;;;;8.60;5.22;;;30.00;96.20;;;;;;5071563;28;20293;-77
2023/06/11 09:25:19;;;;;;;11.65;5.25;;;30.10;95.90;;;;;;5063275;28;20036;-76
2023/06/11 09:27:46;;;;;;;7.30;5.65;;;30.20;95.50;;;;;;5071439;28;20076;-76
2023/06/11 09:30:17;;;;;;;10.27;5.53;;;30.30;95.50;;;;;;5071056;28;20055;-75
2023/06/11 09:32:45;;;;;;;6.65;5.30;;;30.30;95.30;;;;;;5071663;28;20458;-75
2023/06/11 09:35:13;;;;;;;6.90;5.25;;;30.30;95.10;;;;;;5071314;28;20036;-75
2023/06/11 09:37:47;;;;;;;6.70;5.13;;;30.30;95.10;;;;;;5070256;28;20476;-75
2023/06/11 09:40:17;;;;;;;9.40;5.40;;;30.50;95.00;;;;;;5069316;28;20175;-75
2023/06/11 09:42:45;;;;;;;7.50;4.93;;;30.70;94.90;;;;;;5071117;28;20162;-75
2023/06/11 09:45:16;;;;;;;6.57;4.85;;;30.70;94.50;;;;;;5070870;28;20045;-75
2023/06/11 09:47:44;;;;;;;13.57;4.90;;;30.70;94.30;;;;;;5069626;28;20079;-75
2023/06/11 09:50:18;;;;;;;10.00;5.60;;;30.70;94.60;;;;;;5070544;28;20400;-75
2023/06/11 09:52:45;;;;;;;6.03;4.60;;;30.80;94.50;;;;;;5070956;28;20074;-75
2023/06/11 09:55:11;;;;;;;9.05;5.10;;;30.90;94.40;;;;;;5069552;28;20119;-76
2023/06/11 09:57:38;;;;;;;10.00;4.82;;;30.90;94.20;;;;;;5069450;28;20527;-74
2023/06/11 10:00:11;;;;;;;11.63;5.38;;;31.10;93.70;;;;;;5069188;28;20127;-74
2023/06/11 10:02:38;;;;;;;8.95;4.90;;;31.10;93.50;;;;;;5052140;28;20040;-76
2023/06/11 10:05:06;;;;;;;6.15;4.60;;;31.20;93.90;;;;;;5068863;28;20048;-75
2023/06/11 10:07:39;;;;;;;8.38;5.03;;;31.20;93.30;;;;;;5069182;28;20057;-75
2023/06/11 10:10:07;;;;;;;9.87;4.73;;;31.30;93.70;;;;;;5070860;28;20043;-75
2023/06/11 10:12:33;;;;;;;11.20;4.65;;;31.40;93.20;;;;;;5070404;28;20550;-75
2023/06/11 10:14:59;;;;;;;6.75;4.70;;;31.30;93.20;;;;;;5069115;28;20044;-76
2023/06/11 10:17:25;;;;;;;15.60;4.90;;;31.20;93.00;;;;;;5068630;28;20119;-75
2023/06/11 10:19:55;;;;;;;9.80;4.60;;;31.40;93.10;;;;;;5068981;28;20182;-75
2023/06/11 10:22:31;;;;;;;6.47;4.63;;;31.40;93.00;;;;;;5069300;28;20108;-75
2023/06/11 10:25:02;;;;;;;6.35;4.30;;;31.50;92.60;;;;;;5069124;28;20048;-76
2023/06/11 10:27:40;;;;;;;10.15;5.00;;;31.60;91.80;;;;;;5069054;28;20044;-76
2023/06/11 10:30:07;;;;;;;6.50;4.60;;;31.60;92.10;;;;;;5068466;28;20055;-75
2023/06/11 10:32:33;;;;;;;7.72;4.45;;;31.70;91.80;;;;;;5070078;28;20052;-75
2023/06/11 10:35:07;;;;;;;6.00;4.40;;;31.80;91.80;;;;;;5068700;28;20190;-75
2023/06/11 10:37:36;;;;;;;8.77;5.03;;;31.80;91.60;;;;;;5052451;28;20406;-75
2023/06/11 10:40:08;;;;;;;8.35;4.82;;;31.90;91.90;;;;;;5068567;28;20088;-74
2023/06/11 10:42:44;;;;;;;8.52;4.57;;;32.10;92.20;;;;;;5070099;28;20036;-75
2023/06/11 10:45:13;;;;;;;10.25;4.30;;;32.20;92.10;;;;;;5070234;28;20052;-76
2023/06/11 10:47:49;;;;;;;7.53;4.28;;;32.30;91.70;;;;;;5070136;28;20044;-75
2023/06/11 10:50:24;;;;;;;7.55;4.53;;;32.40;91.20;;;;;;5068595;28;20407;-75
2023/06/11 10:52:55;;;;;;;7.43;4.63;;;32.30;91.20;;;;;;5068672;28;20060;-76
2023/06/11 10:55:22;;;;;;;8.05;4.43;;;32.40;91.40;;;;;;5068643;28;20071;-75
2023/06/11 10:57:55;;;;;;;6.93;4.63;;;32.50;91.20;;;;;;5068663;28;20056;-75
2023/06/11 11:00:22;;;;;;;6.47;4.00;;;32.50;91.10;;;;;;5068414;28;20049;-75
2023/06/11 11:02:48;;;;;;;7.50;4.50;;;32.60;91.10;;;;;;5069936;28;20076;-75
2023/06/11 11:05:14;;;;;;;8.02;4.07;;;32.70;90.20;;;;;;5070109;28;20069;-76
2023/06/11 11:07:44;;;;;;;17.60;4.97;;;32.70;90.40;;;;;;5068645;28;20488;-75
2023/06/11 11:10:11;;;;;;;9.18;4.47;;;32.60;90.20;;;;;;5068753;28;20067;-76
2023/06/11 11:12:45;;;;;;;8.20;4.85;;;32.50;90.20;;;;;;5051730;28;20484;-75
2023/06/11 11:15:12;;;;;;;;;;;32.70;90.10;;;;;;5070373;28;20043;-76
2023/06/11 11:17:42;;;;;;;7.97;4.57;;;32.80;89.60;;;;;;5069748;28;19921;-76
2023/06/11 11:20:19;;;;;;;6.47;4.20;;;32.90;89.60;;;;;;5069904;28;20124;-76
2023/06/11 11:22:54;;;;;;;5.50;3.90;;;32.90;88.50;;;;;;5068244;28;20053;-75
2023/06/11 11:25:29;;;;;;;10.15;4.00;;;32.90;88.80;;;;;;5052028;28;20442;-76
2023/06/11 11:27:56;;;;;;;6.25;4.00;;;33.00;87.90;;;;;;5068242;28;20044;-76
2023/06/11 11:30:24;;;;;;;5.65;4.32;;;33.00;87.10;;;;;;5070192;28;20036;-76
2023/06/11 11:32:52;;;;;;;9.52;4.13;;;33.10;86.40;;;;;;5068140;28;20098;-75
2023/06/11 11:35:22;;;;;;;6.60;4.30;;;33.20;86.60;;;;;;5068547;28;20072;-75
2023/06/11 11:37:50;;;;;;;6.57;3.90;;;33.20;86.10;;;;;;5068680;28;20044;-75
2023/06/11 11:40:20;;;;;;;10.27;3.72;;;33.20;86.40;;;;;;5051377;28;20063;-76
2023/06/11 11:42:50;;;;;;;6.43;3.80;;;33.30;83.90;;;;;;5070806;28;20075;-75
2023/06/11 11:45:22;;;;;;;4.75;3.60;;;33.30;84.30;;;;;;5072122;28;20119;-76
2023/06/11 11:47:51;;;;;;;9.48;3.95;;;33.30;85.30;;;;;;5071803;28;20048;-76
2023/06/11 11:50:30;;;;;;;5.93;3.75;;;33.30;84.60;;;;;;5071448;28;20139;-76
2023/06/11 11:53:05;;;;;;;6.30;3.90;;;33.40;84.40;;;;;;5055344;28;20106;-75
2023/06/11 11:55:43;;;;;;;8.77;3.85;;;33.20;83.00;;;;;;5063424;28;20127;-75
2023/06/11 11:58:11;;;;;;;4.95;3.58;;;33.30;83.10;;;;;;5071795;28;20058;-75
2023/06/11 12:00:46;;;;;;;5.47;4.15;;;33.00;82.70;;;;;;5063471;28;20063;-75
2023/06/11 12:03:12;;;;;;;5.90;3.83;;;32.90;82.10;;;;;;5055441;28;20048;-74
2023/06/11 12:05:38;;;;;;;9.93;3.65;;;33.00;82.10;;;;;;5073068;28;20044;-76
2023/06/11 12:08:05;;;;;;;4.72;3.63;;;33.30;83.20;;;;;;5073390;28;20036;-76
2023/06/11 12:10:31;;;;;;;5.72;4.10;;;33.40;80.70;;;;;;5073019;28;20115;-75
2023/06/11 12:13:01;;;;;;;5.25;3.42;;;33.40;82.30;;;;;;5072816;28;20123;-75
2023/06/11 12:15:27;;;;;;;9.40;3.88;;;33.10;80.40;;;;;;5071516;28;20043;-75
2023/06/11 12:17:53;;;;;;;5.35;3.50;;;32.80;80.70;;;;;;5063282;28;20048;-75
2023/06/11 12:20:21;;;;;;;9.73;3.80;;;32.90;81.20;;;;;;5070974;28;20049;-74
2023/06/11 12:22:47;;;;;;;5.43;3.83;;;32.90;80.80;;;;;;5071397;28;20102;-75
2023/06/11 12:25:13;;;;;;;7.72;3.97;;;32.70;80.20;;;;;;5071089;28;20076;-76
2023/06/11 12:27:39;;;;;;;5.68;3.47;;;32.50;79.60;;;;;;5071206;28;20099;-77
2023/06/11 12:30:05;;;;;;;7.05;3.38;;;32.40;79.20;;;;;;5071021;28;20044;-77
2023/06/11 12:32:31;;;;;;;5.18;3.92;;;32.60;78.70;;;;;;5071021;28;20037;-74
2023/06/11 12:34:57;;;;;;;9.18;3.88;;;32.90;79.10;;;;;;5070723;28;20121;-76
2023/06/11 12:37:24;;;;;;;7.57;3.75;;;32.90;78.20;;;;;;5070857;28;20044;-75
2023/06/11 12:39:51;;;;;;;6.40;3.80;;;32.80;78.30;;;;;;5072070;28;20067;-76
2023/06/11 12:42:19;;;;;;;5.22;3.72;;;33.10;78.20;;;;;;5070938;28;20044;-75